Time;durP1;ratioP1;P1;durP2;ratioP2;P2;SDS_P1;SDS_P2;PMS_P1;PMS_P2;Temp;Humidity;BMP_temperature;BMP_pressure;BME280_temperature;BME280_humidity;BME280_pressure;Samples;Min_cycle;Max_cycle;Signal;HPM_P1;HPM_P2
2023/04/13 00:02:02;;;;;;;4.18;1.80;;;;;;;4.67;100.00;99442.13;4990395;28;20450;-75
2023/04/13 00:04:30;;;;;;;3.80;1.77;;;;;;;4.66;100.00;99424.94;4990486;28;20030;-75
2023/04/13 00:06:57;;;;;;;6.57;1.75;;;;;;;4.66;100.00;99422.34;4990592;28;20478;-75
2023/04/13 00:09:23;;;;;;;6.18;1.67;;;;;;;4.59;100.00;99407.88;4990665;28;20025;-75
2023/04/13 00:11:48;;;;;;;3.58;1.80;;;;;;;4.66;100.00;99416.34;4990465;28;20022;-74
2023/04/13 00:14:13;;;;;;;6.07;1.75;;;;;;;4.64;100.00;99413.81;4990407;28;20029;-74
2023/04/13 00:16:39;;;;;;;7.78;1.90;;;;;;;4.68;100.00;99409.44;4990426;28;20171;-75
2023/04/13 00:19:04;;;;;;;3.53;1.70;;;;;;;4.69;100.00;99414.53;4990906;28;20075;-74
2023/04/13 00:21:29;;;;;;;4.13;1.40;;;;;;;4.73;100.00;99415.31;4990110;28;20058;-74
2023/04/13 00:23:55;;;;;;;5.45;1.83;;;;;;;4.79;100.00;99416.94;4990108;28;20474;-75
2023/04/13 00:26:21;;;;;;;4.65;1.23;;;;;;;4.74;100.00;99417.03;4991220;28;20034;-74
2023/04/13 00:28:47;;;;;;;4.53;1.40;;;;;;;4.81;100.00;99417.75;4989869;28;20018;-74
2023/04/13 00:31:12;;;;;;;4.72;1.25;;;;;;;4.83;100.00;99406.47;4989906;28;20030;-74
2023/04/13 00:33:38;;;;;;;3.65;1.52;;;;;;;4.82;100.00;99409.13;4990356;28;20101;-74
2023/04/13 00:36:04;;;;;;;4.53;1.48;;;;;;;4.90;100.00;99413.22;4990060;28;20377;-75
2023/04/13 00:38:30;;;;;;;5.10;1.40;;;;;;;4.93;100.00;99423.47;4990436;28;20038;-75
2023/04/13 00:40:56;;;;;;;3.80;1.20;;;;;;;4.88;100.00;99414.13;4990030;28;20030;-75
2023/04/13 00:43:21;;;;;;;6.40;1.20;;;;;;;4.87;100.00;99423.63;4990741;28;20026;-75
2023/04/13 00:45:47;;;;;;;4.78;1.98;;;;;;;4.93;100.00;99425.19;4988307;28;20103;-75
2023/04/13 00:48:13;;;;;;;6.60;2.22;;;;;;;4.88;100.00;99416.72;4989870;28;20425;-76
2023/04/13 00:50:40;;;;;;;6.22;1.80;;;;;;;4.91;100.00;99406.31;4988768;28;20023;-75
2023/04/13 00:53:06;;;;;;;3.50;1.60;;;;;;;4.92;100.00;99420.94;4989901;28;20482;-76
2023/04/13 00:55:31;;;;;;;4.75;1.65;;;;;;;4.90;100.00;99420.97;4987271;28;20042;-75
2023/04/13 00:57:58;;;;;;;4.35;1.50;;;;;;;4.90;100.00;99420.97;4987899;28;20026;-75
2023/04/13 01:00:25;;;;;;;5.47;1.40;;;;;;;4.90;100.00;99412.34;4989217;28;20034;-74
2023/04/13 01:02:54;;;;;;;7.55;1.73;;;;;;;4.91;100.00;99419.25;4988386;28;20109;-75
2023/04/13 01:05:20;;;;;;;4.45;1.50;;;;;;;4.92;100.00;99411.44;4986330;28;20154;-75
2023/04/13 01:08:00;;;;;;;7.63;1.98;;;;;;;4.96;100.00;99421.69;4988781;28;20083;-75
2023/04/13 01:10:31;;;;;;;4.28;1.40;;;;;;;4.93;100.00;99418.28;4988385;28;20034;-75
2023/04/13 01:13:20;;;;;;;4.60;1.50;;;;;;;4.95;100.00;99414.84;4988194;28;20065;-74
2023/04/13 01:15:54;;;;;;;6.25;2.20;;;;;;;4.93;100.00;99410.53;4997291;28;20482;-74
2023/04/13 01:18:20;;;;;;;5.70;1.58;;;;;;;4.97;100.00;99418.22;4976432;28;20022;-75
2023/04/13 01:20:47;;;;;;;4.50;1.80;;;;;;;4.97;100.00;99413.06;4987085;28;20031;-74
2023/04/13 01:23:30;;;;;;;4.28;1.50;;;;;;;4.96;100.00;99417.38;4989678;28;20510;-74
2023/04/13 01:26:00;;;;;;;7.60;1.35;;;;;;;4.98;100.00;99423.38;4989185;28;20038;-74
2023/04/13 01:28:27;;;;;;;5.28;1.50;;;;;;;5.00;100.00;99419.00;4989822;28;20158;-75
2023/04/13 01:30:54;;;;;;;5.97;1.67;;;;;;;5.03;100.00;99418.09;4989520;28;20026;-75
2023/04/13 01:33:21;;;;;;;6.88;2.28;;;;;;;5.00;100.00;99419.00;4989384;28;20445;-75
2023/04/13 01:35:48;;;;;;;7.03;2.33;;;;;;;5.04;100.00;99425.81;4990140;28;20026;-74
2023/04/13 01:38:13;;;;;;;8.18;1.60;;;;;;;5.04;100.00;99424.97;4989910;28;20019;-75
2023/04/13 01:40:43;;;;;;;8.40;1.90;;;;;;;5.08;100.00;99426.59;4988829;28;20022;-75
2023/04/13 01:43:09;;;;;;;6.18;1.75;;;;;;;5.07;100.00;99442.97;4991379;28;20442;-76
2023/04/13 01:45:55;;;;;;;6.53;1.50;;;;;;;5.08;100.00;99439.50;4992356;28;20105;-76
2023/04/13 01:48:23;;;;;;;3.75;1.48;;;;;;;5.13;100.00;99453.13;4993059;28;20034;-76
2023/04/13 01:50:56;;;;;;;5.40;1.80;;;;;;;5.13;100.00;99440.22;4992900;28;20038;-76
2023/04/13 01:53:27;;;;;;;5.50;1.70;;;;;;;5.13;100.00;99442.81;4984356;28;20057;-76
2023/04/13 01:55:53;;;;;;;9.25;1.95;;;;;;;5.09;100.00;99447.19;4992326;28;20348;-76
2023/04/13 01:58:19;;;;;;;6.45;2.03;;;;;;;5.14;100.00;99453.13;4993163;28;20027;-76
2023/04/13 02:00:45;;;;;;;7.32;1.98;;;;;;;5.14;100.00;99449.69;4991858;28;20470;-76
2023/04/13 02:03:12;;;;;;;11.10;2.08;;;;;;;5.13;100.00;99466.06;4992755;28;20038;-75
2023/04/13 02:05:39;;;;;;;8.07;1.95;;;;;;;5.14;100.00;99463.47;4992699;28;20456;-76
2023/04/13 02:08:06;;;;;;;8.50;1.98;;;;;;;5.15;100.00;99475.47;4992744;28;20050;-75
2023/04/13 02:10:33;;;;;;;9.15;2.00;;;;;;;5.13;100.00;99491.91;4992383;28;20026;-76
2023/04/13 02:12:59;;;;;;;7.63;2.03;;;;;;;5.13;100.00;99491.91;4992449;28;20385;-76
2023/04/13 02:15:25;;;;;;;9.93;2.20;;;;;;;5.09;100.00;99491.13;4992165;28;20029;-76
2023/04/13 02:17:51;;;;;;;14.40;2.53;;;;;;;5.09;100.00;99496.28;4992117;28;20027;-75
2023/04/13 02:20:16;;;;;;;9.48;2.13;;;;;;;5.07;100.00;99489.47;4992668;28;20481;-76
2023/04/13 02:22:42;;;;;;;10.63;2.90;;;;;;;5.04;100.00;99498.13;4991104;28;20473;-75
2023/04/13 02:25:10;;;;;;;12.55;2.35;;;;;;;5.08;100.00;99504.09;4989493;28;20065;-75
2023/04/13 02:27:37;;;;;;;12.07;2.50;;;;;;;5.06;100.00;99517.03;4992561;28;20092;-75
2023/04/13 02:30:04;;;;;;;7.45;2.63;;;;;;;5.05;100.00;99525.66;4991746;28;20034;-75
2023/04/13 02:32:30;;;;;;;8.82;2.50;;;;;;;5.04;100.00;99518.81;4992698;28;20031;-75
2023/04/13 02:34:55;;;;;;;6.40;2.78;;;;;;;5.04;100.00;99515.38;4997699;28;20428;-75
2023/04/13 02:37:21;;;;;;;9.98;2.80;;;;;;;5.09;100.00;99519.53;5011569;28;20055;-75
2023/04/13 02:39:46;;;;;;;12.50;3.42;;;;;;;5.08;100.00;99524.75;5011336;28;20030;-75
2023/04/13 02:42:11;;;;;;;11.77;3.28;;;;;;;5.10;100.00;99531.59;4999867;28;20029;-74
2023/04/13 02:44:37;;;;;;;9.68;3.30;;;;;;;5.11;100.00;99529.84;4999447;28;20447;-75
2023/04/13 02:47:03;;;;;;;7.95;2.92;;;;;;;5.08;100.00;99538.50;5001444;28;20074;-75
2023/04/13 02:49:28;;;;;;;10.52;2.80;;;;;;;5.13;100.00;99543.56;5001304;28;20029;-75
2023/04/13 02:51:53;;;;;;;8.18;2.70;;;;;;;5.12;100.00;99541.88;5005869;28;20026;-74
2023/04/13 02:54:19;;;;;;;6.63;2.50;;;;;;;5.10;100.00;99541.91;4995568;28;20051;-75
2023/04/13 02:56:44;;;;;;;10.32;2.80;;;;;;;5.09;100.00;99549.69;4999034;28;20104;-75
2023/04/13 02:59:10;;;;;;;6.00;2.60;;;;;;;5.07;100.00;99554.06;5009142;28;20094;-75
2023/04/13 03:01:35;;;;;;;6.22;2.08;;;;;;;5.05;100.00;99540.31;5002201;28;20022;-75
2023/04/13 03:04:01;;;;;;;5.97;2.28;;;;;;;5.07;100.00;99541.97;5010485;28;20026;-75
2023/04/13 03:06:26;;;;;;;8.32;2.50;;;;;;;5.06;100.00;99553.19;5011119;28;20134;-75
2023/04/13 03:08:51;;;;;;;5.72;2.33;;;;;;;5.07;100.00;99574.72;5010958;28;20492;-75
2023/04/13 03:11:17;;;;;;;7.47;2.35;;;;;;;5.05;100.00;99582.50;5011028;28;20108;-75
2023/04/13 03:13:42;;;;;;;7.55;2.45;;;;;;;5.02;100.00;99594.63;5003262;28;20105;-76
2023/04/13 03:16:10;;;;;;;10.20;2.95;;;;;;;4.90;100.00;99595.72;5009281;28;20358;-76
2023/04/13 03:18:37;;;;;;;6.75;3.10;;;;;;;4.79;100.00;99598.50;5008747;28;20055;-76
2023/04/13 03:21:04;;;;;;;8.95;3.88;;;;;;;4.81;100.00;99599.34;5010894;28;20046;-76
2023/04/13 03:23:30;;;;;;;11.27;3.50;;;;;;;4.82;100.00;99605.34;5011206;28;20038;-76
2023/04/13 03:25:55;;;;;;;10.85;3.75;;;;;;;4.82;100.00;99603.63;5010190;28;20026;-76
2023/04/13 03:28:20;;;;;;;10.98;3.85;;;;;;;4.87;100.00;99609.56;5011213;28;20022;-76
2023/04/13 03:30:46;;;;;;;11.70;4.20;;;;;;;4.87;100.00;99608.69;5010708;28;20029;-75
2023/04/13 03:33:11;;;;;;;8.82;3.65;;;;;;;4.83;100.00;99612.22;5007717;28;20049;-75
2023/04/13 03:35:36;;;;;;;13.48;4.05;;;;;;;4.79;100.00;99618.31;5009381;28;20027;-75
2023/04/13 03:38:02;;;;;;;12.00;4.68;;;;;;;4.78;100.00;99625.22;5009968;28;20085;-75
2023/04/13 03:40:27;;;;;;;17.08;5.15;;;;;;;4.78;100.00;99622.66;5010418;28;20032;-76
2023/04/13 03:42:52;;;;;;;9.10;4.70;;;;;;;4.79;100.00;99637.25;5010655;28;20030;-75
2023/04/13 03:45:18;;;;;;;11.63;5.15;;;;;;;4.77;100.00;99638.16;5010367;28;20034;-75
2023/04/13 03:47:43;;;;;;;14.95;5.93;;;;;;;4.72;100.00;99630.50;4996700;28;20028;-75
2023/04/13 03:50:09;;;;;;;15.18;6.05;;;;;;;4.74;100.00;99638.19;5006363;28;20023;-75
2023/04/13 03:52:34;;;;;;;14.65;6.50;;;;;;;4.71;100.00;99639.13;5006852;28;20022;-75
2023/04/13 03:55:00;;;;;;;16.52;6.95;;;;;;;4.72;100.00;99640.81;5002763;28;20046;-75
2023/04/13 03:57:26;;;;;;;17.00;6.57;;;;;;;4.70;100.00;99647.75;5002315;28;20037;-75
2023/04/13 03:59:51;;;;;;;12.57;6.40;;;;;;;4.65;100.00;99654.75;4991904;28;20080;-74
2023/04/13 04:02:16;;;;;;;14.20;6.47;;;;;;;4.59;100.00;99655.69;4993291;28;20041;-75
2023/04/13 04:04:42;;;;;;;14.43;6.00;;;;;;;4.59;100.00;99666.00;4998685;28;20030;-75
2023/04/13 04:07:07;;;;;;;17.25;6.88;;;;;;;4.60;100.00;99664.28;4994107;28;20484;-75
2023/04/13 04:09:33;;;;;;;16.20;6.28;;;;;;;4.55;100.00;99664.38;4994490;28;20035;-74
2023/04/13 04:11:58;;;;;;;17.98;6.80;;;;;;;4.59;100.00;99676.34;5008463;28;20057;-75
2023/04/13 04:14:23;;;;;;;16.52;6.35;;;;;;;4.60;100.00;99678.03;5004405;28;20058;-75
2023/04/13 04:16:49;;;;;;;14.63;6.20;;;;;;;4.57;100.00;99684.97;5010094;28;20018;-75
2023/04/13 04:19:14;;;;;;;18.65;6.45;;;;;;;4.52;100.00;99687.66;5010263;28;20030;-75
2023/04/13 04:21:45;;;;;;;15.63;6.10;;;;;;;4.51;100.00;99703.16;5009421;28;20094;-75
2023/04/13 04:24:21;;;;;;;16.25;6.25;;;;;;;4.42;100.00;99697.28;5007361;28;20044;-75
2023/04/13 04:26:53;;;;;;;16.55;5.80;;;;;;;4.45;100.00;99696.38;5008582;28;20901;-74
2023/04/13 04:29:32;;;;;;;12.73;5.85;;;;;;;4.41;100.00;99695.59;5003690;28;20027;-74
2023/04/13 04:31:58;;;;;;;15.95;5.80;;;;;;;4.42;100.00;99705.03;5008256;28;20036;-74
2023/04/13 04:34:23;;;;;;;16.00;6.32;;;;;;;4.36;100.00;99702.53;5009472;28;20116;-74
2023/04/13 04:36:49;;;;;;;17.35;6.32;;;;;;;4.34;100.00;99708.59;5009408;28;20100;-74
2023/04/13 04:39:22;;;;;;;21.50;7.50;;;;;;;4.29;100.00;99716.41;5010333;28;20079;-74
2023/04/13 04:42:01;;;;;;;14.88;6.72;;;;;;;4.25;100.00;99731.94;5001562;28;20054;-74
2023/04/13 04:44:29;;;;;;;16.05;7.18;;;;;;;4.18;100.00;99724.31;4995959;28;20034;-74
2023/04/13 04:46:58;;;;;;;19.35;7.68;;;;;;;4.16;100.00;99728.66;4998290;28;20061;-74
2023/04/13 04:49:26;;;;;;;20.98;7.63;;;;;;;4.14;100.00;99737.28;5008247;28;20057;-74
2023/04/13 04:51:52;;;;;;;16.88;7.50;;;;;;;4.15;100.00;99737.28;5009504;28;20354;-74
2023/04/13 04:54:18;;;;;;;18.15;7.93;;;;;;;4.15;100.00;99739.84;5009593;28;20045;-74
2023/04/13 04:56:44;;;;;;;17.98;8.10;;;;;;;4.13;100.00;99746.75;5008902;28;20481;-74
2023/04/13 04:59:10;;;;;;;17.40;8.40;;;;;;;4.13;100.00;99749.34;5000239;28;20080;-75
2023/04/13 05:01:35;;;;;;;16.02;8.27;;;;;;;4.11;100.00;99743.34;5007888;28;20508;-74
2023/04/13 05:04:00;;;;;;;20.70;8.18;;;;;;;4.10;100.00;99748.53;5008799;28;20078;-74
2023/04/13 05:06:31;;;;;;;18.52;8.32;;;;;;;4.16;100.00;99754.44;5009754;28;20022;-74
2023/04/13 05:08:56;;;;;;;26.02;9.95;;;;;;;4.25;100.00;99758.63;5009479;28;20057;-74
2023/04/13 05:11:22;;;;;;;20.85;9.50;;;;;;;4.25;100.00;99744.84;5008777;28;20064;-74
2023/04/13 05:13:47;;;;;;;21.20;9.82;;;;;;;4.29;100.00;99744.81;5009536;28;20585;-74
2023/04/13 05:16:13;;;;;;;20.75;10.15;;;;;;;4.30;100.00;99749.06;4999884;28;20512;-74
2023/04/13 05:18:44;;;;;;;24.05;9.52;;;;;;;4.28;100.00;99752.56;5012267;28;20026;-74
2023/04/13 05:21:09;;;;;;;25.38;9.68;;;;;;;4.27;100.00;99746.53;5013195;28;20381;-74
2023/04/13 05:23:34;;;;;;;21.65;9.85;;;;;;;4.20;100.00;99750.09;5012518;28;20494;-74
2023/04/13 05:26:00;;;;;;;19.20;8.50;;;;;;;4.29;100.00;99760.28;5012353;28;20130;-74
2023/04/13 05:28:25;;;;;;;16.13;8.52;;;;;;;4.32;100.00;99762.81;5012761;28;20026;-74
2023/04/13 05:30:51;;;;;;;15.30;7.57;;;;;;;4.39;100.00;99761.84;5002838;28;20079;-74
2023/04/13 05:33:16;;;;;;;21.85;7.63;;;;;;;4.45;100.00;99766.06;5005228;28;20038;-74
2023/04/13 05:35:42;;;;;;;17.42;6.85;;;;;;;4.50;100.00;99768.56;4987509;28;20469;-74
2023/04/13 05:38:08;;;;;;;15.25;6.60;;;;;;;4.55;100.00;99774.53;4990947;28;20025;-74
2023/04/13 05:40:33;;;;;;;19.40;6.90;;;;;;;4.57;100.00;99776.19;4997500;28;20026;-73
2023/04/13 05:42:59;;;;;;;16.42;6.15;;;;;;;4.56;100.00;99781.38;4999280;28;20030;-74
2023/04/13 05:45:24;;;;;;;15.48;5.63;;;;;;;4.60;100.00;99783.03;5006379;28;20444;-74
2023/04/13 05:47:50;;;;;;;16.75;5.65;;;;;;;4.61;100.00;99795.03;4999895;28;20519;-74
2023/04/13 05:50:15;;;;;;;11.45;5.45;;;;;;;4.63;100.00;99801.03;5012481;28;20021;-74
2023/04/13 05:52:40;;;;;;;11.80;5.30;;;;;;;4.69;100.00;99806.97;5011530;28;20014;-74
2023/04/13 05:55:06;;;;;;;14.38;5.30;;;;;;;4.71;100.00;99804.38;5012046;28;20057;-74
2023/04/13 05:57:32;;;;;;;19.20;6.43;;;;;;;4.71;100.00;99812.13;5012347;28;20058;-73
2023/04/13 05:59:57;;;;;;;12.35;5.20;;;;;;;4.75;100.00;99818.94;5009072;28;20124;-74
2023/04/13 06:02:25;;;;;;;10.35;4.93;;;;;;;4.82;100.00;99811.94;5012460;28;20037;-74
2023/04/13 06:04:53;;;;;;;11.00;5.20;;;;;;;4.85;100.00;99812.75;5011976;28;20393;-75
2023/04/13 06:07:22;;;;;;;12.73;5.07;;;;;;;4.92;100.00;99832.41;4999872;28;20026;-74
2023/04/13 06:09:47;;;;;;;15.13;4.47;;;;;;;4.98;100.00;99838.38;5010822;28;20025;-74
2023/04/13 06:12:12;;;;;;;8.73;4.20;;;;;;;5.02;100.00;99840.00;5012658;28;20030;-74
2023/04/13 06:14:40;;;;;;;10.90;4.43;;;;;;;5.01;100.00;99846.06;5011241;28;20461;-74
2023/04/13 06:17:05;;;;;;;10.07;4.70;;;;;;;5.05;100.00;99852.88;5012379;28;20022;-74
2023/04/13 06:19:31;;;;;;;10.18;4.50;;;;;;;4.98;100.00;99840.94;5011978;28;20028;-74
2023/04/13 06:21:57;;;;;;;11.40;5.07;;;;;;;4.91;100.00;99833.31;5004151;28;20041;-74
2023/04/13 06:24:22;;;;;;;7.80;4.97;;;;;;;5.09;100.00;99844.19;5011533;28;20098;-74
2023/04/13 06:26:47;;;;;;;13.77;4.90;;;;;;;5.15;100.00;99859.59;4996038;28;20033;-74
2023/04/13 06:29:13;;;;;;;12.88;4.85;;;;;;;5.23;100.00;99854.28;5010921;28;20091;-74
2023/04/13 06:31:38;;;;;;;14.18;4.70;;;;;;;5.30;100.00;99855.91;5011434;28;20082;-74
2023/04/13 06:34:03;;;;;;;11.23;4.60;;;;;;;5.38;100.00;99860.03;5011597;28;20037;-74
2023/04/13 06:36:28;;;;;;;9.73;4.50;;;;;;;5.47;100.00;99861.63;4999148;28;20080;-74
2023/04/13 06:38:54;;;;;;;11.05;4.90;;;;;;;5.53;100.00;99866.69;4991876;28;20030;-74
2023/04/13 06:41:19;;;;;;;12.05;5.07;;;;;;;5.59;100.00;99883.78;4991648;28;20026;-74
2023/04/13 06:43:45;;;;;;;11.25;4.80;;;;;;;5.62;100.00;99883.75;5009322;28;20373;-75
2023/04/13 06:46:11;;;;;;;10.18;4.53;;;;;;;5.64;100.00;99876.81;5008111;28;20435;-74
2023/04/13 06:48:36;;;;;;;11.70;4.60;;;;;;;5.72;100.00;99882.72;5002864;28;20044;-75
2023/04/13 06:51:01;;;;;;;12.35;4.82;;;;;;;5.65;100.00;99888.84;4992640;28;20097;-74
2023/04/13 06:53:27;;;;;;;9.77;4.32;;;;;;;5.66;100.00;99903.50;5006978;28;20034;-74
2023/04/13 06:55:52;;;;;;;14.60;4.82;;;;;;;5.74;100.00;99898.19;5001871;28;20385;-74
2023/04/13 06:58:17;;;;;;;20.70;4.70;;;;;;;5.77;100.00;99898.13;5001888;28;20026;-74
2023/04/13 07:00:43;;;;;;;10.85;4.80;;;;;;;5.79;100.00;99904.13;5004934;28;20127;-75
2023/04/13 07:03:08;;;;;;;9.23;4.53;;;;;;;5.84;100.00;99910.06;5011008;28;20022;-75
2023/04/13 07:05:34;;;;;;;15.20;4.60;;;;;;;5.88;100.00;99919.47;5012350;28;20030;-73
2023/04/13 07:08:02;;;;;;;10.57;4.63;;;;;;;5.85;100.00;99912.63;5000738;28;20392;-73
2023/04/13 07:10:28;;;;;;;9.32;4.35;;;;;;;5.89;100.00;99913.44;5006841;28;20050;-73
2023/04/13 07:12:53;;;;;;;8.43;4.43;;;;;;;5.85;100.00;99912.63;5014390;28;20492;-74
2023/04/13 07:15:18;;;;;;;14.00;4.18;;;;;;;5.93;100.00;99928.03;4976236;28;20018;-73
2023/04/13 07:17:44;;;;;;;14.57;4.93;;;;;;;5.91;100.00;99934.94;4971069;28;20019;-73
2023/04/13 07:20:10;;;;;;;12.38;5.40;;;;;;;5.92;100.00;99941.81;4988575;28;20083;-74
2023/04/13 07:22:36;;;;;;;10.70;4.40;;;;;;;5.85;100.00;99945.38;5014348;28;20045;-73
2023/04/13 07:25:01;;;;;;;9.90;4.43;;;;;;;5.85;100.00;99954.03;4989947;28;20030;-74
2023/04/13 07:27:27;;;;;;;15.40;4.55;;;;;;;5.85;100.00;99954.03;4990886;28;20122;-74
2023/04/13 07:29:54;;;;;;;16.23;5.47;;;;;;;5.92;100.00;99959.06;4989301;28;20453;-74
2023/04/13 07:32:20;;;;;;;14.43;5.13;;;;;;;5.98;100.00;99962.41;4989607;28;20401;-70
2023/04/13 07:34:46;;;;;;;11.45;4.45;;;;;;;6.01;100.00;99970.13;4989426;28;20214;-74
2023/04/13 07:37:11;;;;;;;11.13;4.57;;;;;;;6.03;100.00;99964.94;4990959;28;20469;-74
2023/04/13 07:39:36;;;;;;;13.10;5.38;;;;;;;6.03;100.00;99968.38;4991214;28;20030;-75
2023/04/13 07:42:02;;;;;;;11.27;4.72;;;;;;;6.09;100.00;99976.03;4988486;28;20520;-74
2023/04/13 07:44:27;;;;;;;13.20;4.78;;;;;;;6.17;100.00;99977.59;5000121;28;20037;-74
2023/04/13 07:46:55;;;;;;;15.23;4.72;;;;;;;6.27;100.00;99977.38;4998997;28;20397;-74
2023/04/13 07:49:22;;;;;;;12.82;4.82;;;;;;;6.28;100.00;99993.81;5009352;28;20037;-74
2023/04/13 07:51:48;;;;;;;10.93;4.18;;;;;;;6.22;100.00;99986.16;5007447;28;20030;-74
2023/04/13 07:54:14;;;;;;;15.88;4.78;;;;;;;6.31;100.00;99994.59;5010096;28;20046;-75
2023/04/13 07:56:39;;;;;;;17.38;5.07;;;;;;;6.41;100.00;99994.38;5007297;28;20033;-75
2023/04/13 07:59:05;;;;;;;11.82;4.38;;;;;;;6.57;100.00;99995.78;4997196;28;20022;-74
2023/04/13 08:01:30;;;;;;;17.58;4.80;;;;;;;6.87;100.00;99996.91;4995838;28;20116;-75
2023/04/13 08:03:56;;;;;;;15.60;4.18;;;;;;;7.20;100.00;100008.25;4992327;28;20167;-74
2023/04/13 08:06:22;;;;;;;13.85;4.78;;;;;;;7.43;100.00;100022.41;5002618;28;20061;-74
2023/04/13 08:08:47;;;;;;;13.88;4.18;;;;;;;7.49;100.00;100006.72;5006548;28;20041;-75
2023/04/13 08:11:13;;;;;;;8.93;3.47;;;;;;;7.66;100.00;100012.34;5000032;28;20048;-75
2023/04/13 08:13:39;;;;;;;12.68;4.10;;;;;;;7.85;100.00;100023.09;5009565;28;20018;-74
2023/04/13 08:16:05;;;;;;;16.58;4.07;;;;;;;7.82;100.00;100030.97;4998063;28;20436;-74
2023/04/13 08:18:31;;;;;;;11.48;3.95;;;;;;;7.77;100.00;100035.41;5003472;28;20062;-74
2023/04/13 08:20:57;;;;;;;11.93;4.55;;;;;;;7.77;100.00;100032.81;5001496;28;20026;-75
2023/04/13 08:23:23;;;;;;;12.90;4.60;;;;;;;7.73;100.00;100042.41;5010398;28;20037;-74
2023/04/13 08:25:49;;;;;;;23.88;5.97;;;;;;;7.77;100.00;100039.75;5005605;28;20158;-74
2023/04/13 08:28:14;;;;;;;14.18;4.07;;;;;;;7.78;100.00;100037.09;4995127;28;20052;-74
2023/04/13 08:30:40;;;;;;;15.57;3.90;;;;;;;7.79;100.00;100045.75;4998225;28;20134;-75
2023/04/13 08:33:05;;;;;;;13.48;4.72;;;;;;;7.78;100.00;100052.66;5011196;28;20030;-75
2023/04/13 08:35:31;;;;;;;16.80;4.22;;;;;;;7.97;100.00;100055.66;5009474;28;20026;-74
2023/04/13 08:37:57;;;;;;;19.00;5.57;;;;;;;8.09;100.00;100063.16;4986423;28;20380;-75
2023/04/13 08:40:22;;;;;;;12.00;4.20;;;;;;;8.15;100.00;100060.41;4983435;28;20034;-74
2023/04/13 08:42:48;;;;;;;11.88;4.32;;;;;;;8.18;100.00;100083.69;5002437;28;20116;-74
2023/04/13 08:45:14;;;;;;;13.35;4.13;;;;;;;8.26;100.00;100075.69;4997102;28;20062;-74
2023/04/13 08:47:40;;;;;;;14.65;3.70;;;;;;;8.25;100.00;100074.00;4996464;28;20029;-74
2023/04/13 08:50:08;;;;;;;15.45;4.50;;;;;;;8.21;100.00;100083.63;5005033;28;20022;-74
2023/04/13 08:52:35;;;;;;;17.92;4.65;;;;;;;8.19;100.00;100084.53;5003640;28;20113;-74
2023/04/13 08:55:02;;;;;;;9.27;3.83;;;;;;;8.28;100.00;100093.84;5008951;28;20046;-74
2023/04/13 08:57:31;;;;;;;18.48;4.25;;;;;;;8.29;100.00;100103.34;5009534;28;20457;-74
2023/04/13 08:59:58;;;;;;;10.95;3.65;;;;;;;8.31;100.00;100105.00;5009755;28;20018;-74
2023/04/13 09:02:30;;;;;;;11.48;3.78;;;;;;;8.55;100.00;100102.69;5009217;28;20037;-74
2023/04/13 09:04:58;;;;;;;11.47;3.63;;;;;;;8.79;100.00;100120.19;4988679;28;20091;-74
2023/04/13 09:07:28;;;;;;;11.68;3.17;;;;;;;8.72;100.00;100136.00;4985648;28;20059;-74
2023/04/13 09:09:58;;;;;;;9.45;2.80;;;;;;;8.63;100.00;100121.50;4989873;28;20035;-74
2023/04/13 09:12:31;;;;;;;13.10;3.28;;;;;;;8.64;100.00;100113.69;4990060;28;20067;-75
2023/04/13 09:14:56;;;;;;;14.63;3.70;;;;;;;8.95;100.00;100133.63;4988568;28;20026;-74
2023/04/13 09:17:27;;;;;;;14.65;3.28;;;;;;;9.30;100.00;100122.19;4987793;28;20039;-75
2023/04/13 09:19:54;;;;;;;12.80;3.67;;;;;;;9.50;100.00;100126.81;4989291;28;20053;-76
2023/04/13 09:22:20;;;;;;;10.98;3.03;;;;;;;9.30;100.00;100131.75;4989752;28;20087;-75
2023/04/13 09:24:47;;;;;;;10.98;3.20;;;;;;;9.06;100.00;100144.59;4988918;28;20117;-76
2023/04/13 09:27:22;;;;;;;9.80;2.67;;;;;;;8.96;100.00;100145.75;4989939;28;20023;-75
2023/04/13 09:29:51;;;;;;;13.82;3.22;;;;;;;8.86;100.00;100144.25;4989207;28;20100;-75
2023/04/13 09:32:25;;;;;;;14.85;2.95;;;;;;;8.74;100.00;100158.47;4976000;28;20035;-75
2023/04/13 09:34:57;;;;;;;;;;;;;;;8.71;100.00;100160.28;4989773;28;20362;-75
2023/04/13 09:37:23;;;;;;;7.97;3.13;;;;;;;8.58;100.00;100170.16;4976548;28;19996;-75
2023/04/13 09:39:48;;;;;;;14.50;3.47;;;;;;;8.51;100.00;100163.41;4989420;28;20527;-76
2023/04/13 09:42:17;;;;;;;9.57;3.10;;;;;;;8.28;100.00;100167.41;4990342;28;20466;-79
2023/04/13 09:44:42;;;;;;;12.75;3.25;;;;;;;8.51;100.00;100179.84;4988436;28;20038;-74
2023/04/13 09:47:07;;;;;;;11.57;3.13;;;;;;;8.68;100.00;100190.66;4995814;28;20033;-74
2023/04/13 09:49:40;;;;;;;15.10;3.30;;;;;;;8.83;100.00;100196.34;4994373;28;20055;-74
2023/04/13 09:52:16;;;;;;;11.48;3.45;;;;;;;8.81;100.00;100195.53;5003946;28;20031;-74
2023/04/13 09:54:42;;;;;;;14.00;3.65;;;;;;;8.81;100.00;100206.78;4981789;28;20050;-76
2023/04/13 09:57:07;;;;;;;11.20;3.42;;;;;;;8.59;100.00;100206.47;5008412;28;20158;-74
2023/04/13 09:59:33;;;;;;;10.73;3.92;;;;;;;8.46;100.00;100218.06;4993301;28;20033;-74
2023/04/13 10:02:02;;;;;;;14.48;3.97;;;;;;;8.48;100.00;100216.28;4995908;28;20022;-75
2023/04/13 10:04:29;;;;;;;12.98;4.32;;;;;;;8.65;100.00;100219.31;5007734;28;20045;-74
2023/04/13 10:06:54;;;;;;;15.50;4.70;;;;;;;8.75;100.00;100208.69;5011376;28;20026;-74
2023/04/13 10:09:20;;;;;;;12.80;4.80;;;;;;;9.16;100.00;100225.78;4997405;28;20042;-75
2023/04/13 10:11:49;;;;;;;13.55;4.88;;;;;;;9.37;100.00;100226.94;5012011;28;20044;-74
2023/04/13 10:14:27;;;;;;;14.27;5.18;;;;;;;9.59;100.00;100234.97;4990593;28;20034;-74
2023/04/13 10:17:06;;;;;;;16.55;4.85;;;;;;;9.76;100.00;100240.53;4988432;28;20026;-74
2023/04/13 10:19:42;;;;;;;11.57;4.38;;;;;;;9.69;100.00;100241.63;4996531;28;20064;-74
2023/04/13 10:22:10;;;;;;;12.98;5.18;;;;;;;9.71;100.00;100234.63;4997680;28;20026;-74
2023/04/13 10:24:37;;;;;;;12.27;4.78;;;;;;;9.71;100.00;100246.75;5005744;28;20033;-74
2023/04/13 10:27:18;;;;;;;16.50;5.72;;;;;;;9.74;100.00;100238.88;4991805;28;20049;-74
2023/04/13 10:29:44;;;;;;;12.82;5.13;;;;;;;9.71;100.00;100241.56;5004179;28;20026;-74
2023/04/13 10:32:20;;;;;;;11.63;5.82;;;;;;;9.67;100.00;100252.97;4992205;28;20037;-75
2023/04/13 10:34:46;;;;;;;17.75;5.55;;;;;;;9.90;100.00;100247.94;5001982;28;20469;-75
2023/04/13 10:37:27;;;;;;;13.70;5.00;;;;;;;10.30;100.00;100247.59;5012890;28;20026;-74
2023/04/13 10:40:08;;;;;;;11.10;4.63;;;;;;;10.72;99.28;100247.06;4993679;28;20369;-74
2023/04/13 10:42:46;;;;;;;10.02;5.07;;;;;;;11.10;97.77;100252.75;4997039;28;20109;-74
2023/04/13 10:45:20;;;;;;;10.32;4.00;;;;;;;11.30;92.52;100259.03;5003898;28;20022;-74
2023/04/13 10:47:46;;;;;;;10.45;3.53;;;;;;;11.14;88.37;100263.94;5001329;28;20034;-74
2023/04/13 10:50:21;;;;;;;13.35;4.75;;;;;;;11.00;94.39;100269.63;5004102;28;20152;-74
2023/04/13 10:53:06;;;;;;;17.67;5.10;;;;;;;10.89;96.41;100277.81;5009965;28;20033;-74
2023/04/13 10:55:35;;;;;;;15.27;4.93;;;;;;;10.58;93.05;100277.97;5007458;28;20170;-74
2023/04/13 10:58:12;;;;;;;10.40;4.35;;;;;;;10.42;93.85;100295.00;5009475;28;20022;-74
2023/04/13 11:00:38;;;;;;;13.40;4.97;;;;;;;10.16;90.88;100285.34;5002217;28;20022;-74
2023/04/13 11:03:05;;;;;;;13.45;5.07;;;;;;;9.97;92.82;100304.16;5009704;28;20465;-74
2023/04/13 11:05:30;;;;;;;14.00;5.25;;;;;;;9.77;94.30;100303.84;5006534;28;20042;-73
2023/04/13 11:07:56;;;;;;;15.13;4.97;;;;;;;9.54;94.82;100304.50;5004578;28;20495;-73
2023/04/13 11:10:26;;;;;;;15.98;4.68;;;;;;;9.56;100.00;100310.53;4998772;28;20037;-73
2023/04/13 11:12:52;;;;;;;12.57;4.88;;;;;;;9.60;100.00;100307.78;5007012;28;20030;-73
2023/04/13 11:15:19;;;;;;;14.80;4.93;;;;;;;9.59;97.50;100319.09;5000946;28;20022;-73
2023/04/13 11:18:11;;;;;;;13.30;4.80;;;;;;;9.44;98.17;100316.91;5003061;28;20034;-73
2023/04/13 11:20:39;;;;;;;14.85;5.78;;;;;;;9.11;100.00;100316.91;5012680;28;20048;-74
2023/04/13 11:23:17;;;;;;;13.65;6.22;;;;;;;8.67;100.00;100320.63;5005290;28;20037;-73
2023/04/13 11:26:00;;;;;;;13.63;5.10;;;;;;;8.61;100.00;100326.81;5003475;28;20042;-74
2023/04/13 11:28:40;;;;;;;17.35;5.53;;;;;;;8.88;100.00;100311.44;5010131;28;20034;-73